createdAt,value
2018-07-07T00:00:34.345Z,19.60
2018-07-07T00:03:03.214Z,19.60
2018-07-07T00:05:32.578Z,19.60
2018-07-07T00:08:01.409Z,19.60
2018-07-07T00:10:29.897Z,19.50
2018-07-07T00:12:59.068Z,19.40
2018-07-07T00:15:28.110Z,19.50
2018-07-07T00:17:56.613Z,19.50
2018-07-07T00:20:25.791Z,19.40
2018-07-07T00:22:54.296Z,19.30
2018-07-07T00:25:23.775Z,19.20
2018-07-07T00:27:52.641Z,19.20
2018-07-07T00:30:21.461Z,19.10
2018-07-07T00:32:50.312Z,19.00
2018-07-07T00:35:19.926Z,19.00
2018-07-07T00:37:48.805Z,19.00
2018-07-07T00:40:17.978Z,18.90
2018-07-07T00:42:46.841Z,18.90
2018-07-07T00:45:18.529Z,18.80
2018-07-07T00:47:47.045Z,18.70
2018-07-07T00:50:16.505Z,18.70
2018-07-07T00:52:45.321Z,18.60
2018-07-07T00:55:14.150Z,18.60
2018-07-07T00:57:43.326Z,18.50
2018-07-07T01:00:12.461Z,18.50
2018-07-07T01:02:41.698Z,18.50
2018-07-07T01:05:20.756Z,18.40
2018-07-07T01:07:49.933Z,18.30
2018-07-07T01:10:18.525Z,18.20
2018-07-07T01:12:48.313Z,18.20
2018-07-07T01:15:17.035Z,18.10
2018-07-07T01:17:45.883Z,18.10
2018-07-07T01:20:14.738Z,18.10
2018-07-07T01:22:44.157Z,18.10
2018-07-07T01:25:13.065Z,18.10
2018-07-07T01:27:42.673Z,18.00
2018-07-07T01:30:11.210Z,18.00
2018-07-07T01:32:40.089Z,18.00
2018-07-07T01:35:09.607Z,17.90
2018-07-07T01:37:40.054Z,17.80
2018-07-07T01:40:08.709Z,17.70
2018-07-07T01:42:38.329Z,17.70
2018-07-07T01:45:07.217Z,17.60
2018-07-07T01:47:37.080Z,17.60
2018-07-07T01:50:05.594Z,17.50
2018-07-07T01:52:34.457Z,17.50
2018-07-07T01:55:03.010Z,17.50
2018-07-07T01:57:31.848Z,17.50
2018-07-07T02:00:00.672Z,17.40
2018-07-07T02:02:29.751Z,17.40
2018-07-07T02:04:58.262Z,17.40
2018-07-07T02:07:27.105Z,17.30
2018-07-07T02:09:56.287Z,17.20
2018-07-07T02:12:28.263Z,17.10
2018-07-07T02:14:56.774Z,17.10
2018-07-07T02:17:25.308Z,17.10
2018-07-07T02:19:54.127Z,17.10
2018-07-07T02:22:24.514Z,17.00
2018-07-07T02:24:54.365Z,16.90
2018-07-07T02:27:24.165Z,16.90
2018-07-07T02:29:53.686Z,16.90
2018-07-07T02:32:22.809Z,16.80
2018-07-07T02:34:51.363Z,16.80
2018-07-07T02:37:20.202Z,16.70
2018-07-07T02:39:48.713Z,16.70
2018-07-07T02:42:17.604Z,16.50
2018-07-07T02:44:46.129Z,16.40
2018-07-07T02:47:15.205Z,16.40
2018-07-07T02:49:44.419Z,16.50
2018-07-07T02:52:14.372Z,16.40
2018-07-07T02:54:43.315Z,16.30
2018-07-07T02:57:12.802Z,16.20
2018-07-07T02:59:41.957Z,16.20
2018-07-07T03:02:10.476Z,16.10
2018-07-07T03:04:39.590Z,16.10
2018-07-07T03:07:08.470Z,16.00
2018-07-07T03:09:37.875Z,16.00
2018-07-07T03:12:06.593Z,16.00
2018-07-07T03:14:36.304Z,15.90
2018-07-07T03:17:05.179Z,15.90
2018-07-07T03:19:33.704Z,15.80
2018-07-07T03:22:02.217Z,15.90
2018-07-07T03:24:32.874Z,15.90
2018-07-07T03:27:02.379Z,15.90
2018-07-07T03:29:31.200Z,15.70
2018-07-07T03:32:01.140Z,15.70
2018-07-07T03:34:29.669Z,15.60
2018-07-07T03:36:58.280Z,15.70
2018-07-07T03:39:26.876Z,15.60
2018-07-07T03:41:55.743Z,15.50
2018-07-07T03:44:24.955Z,15.50
2018-07-07T03:46:53.816Z,15.40
2018-07-07T03:49:22.733Z,15.40
2018-07-07T03:51:51.377Z,15.40
2018-07-07T03:54:19.898Z,15.50
2018-07-07T03:56:48.774Z,15.40
2018-07-07T03:59:17.957Z,15.30
2018-07-07T04:01:46.838Z,15.40
2018-07-07T04:04:15.353Z,15.40
2018-07-07T04:06:44.826Z,15.30
2018-07-07T04:09:14.326Z,15.20
2018-07-07T04:11:44.128Z,15.10
2018-07-07T04:14:12.973Z,15.20
2018-07-07T04:16:43.253Z,15.20
2018-07-07T04:19:12.633Z,15.10
2018-07-07T04:21:41.189Z,15.00
2018-07-07T04:24:09.685Z,15.10
2018-07-07T04:26:38.166Z,15.20
2018-07-07T04:29:06.690Z,15.40
2018-07-07T04:31:35.533Z,15.20
2018-07-07T04:34:05.096Z,15.20
2018-07-07T04:36:34.722Z,15.10
2018-07-07T04:39:04.797Z,15.20
2018-07-07T04:41:33.717Z,15.20
2018-07-07T04:44:02.828Z,15.30
2018-07-07T04:46:31.641Z,15.20
2018-07-07T04:49:00.481Z,15.30
2018-07-07T04:51:59.930Z,15.40
2018-07-07T04:54:28.753Z,15.40
2018-07-07T04:56:57.262Z,15.50
2018-07-07T04:59:27.486Z,15.50
2018-07-07T05:01:58.644Z,15.60
2018-07-07T05:04:27.198Z,15.80
2018-07-07T05:06:57.477Z,15.60
2018-07-07T05:09:26.354Z,15.60
2018-07-07T05:11:56.517Z,15.60
2018-07-07T05:14:25.368Z,15.60
2018-07-07T05:16:54.562Z,15.60
2018-07-07T05:19:23.923Z,15.50
2018-07-07T05:21:57.161Z,15.60
2018-07-07T05:24:26.025Z,15.60
2018-07-07T05:26:54.537Z,15.60
2018-07-07T05:29:23.057Z,15.40
2018-07-07T05:31:51.719Z,15.40
2018-07-07T05:34:20.893Z,15.40
2018-07-07T05:36:49.778Z,15.30
2018-07-07T05:39:18.678Z,15.30
2018-07-07T05:41:47.516Z,15.30
2018-07-07T05:44:18.707Z,15.40
2018-07-07T05:46:47.239Z,15.50
2018-07-07T05:49:16.062Z,15.50
2018-07-07T05:51:44.970Z,15.60
2018-07-07T05:54:13.842Z,15.60
2018-07-07T05:56:46.277Z,15.50
2018-07-07T05:59:15.134Z,15.50
2018-07-07T06:01:44.830Z,15.70
2018-07-07T06:04:14.473Z,15.90
2018-07-07T06:06:44.386Z,15.90
2018-07-07T06:09:13.476Z,15.80
2018-07-07T06:11:42.726Z,15.90
2018-07-07T06:14:11.848Z,16.00
2018-07-07T06:16:41.384Z,16.10
2018-07-07T06:19:10.878Z,15.90
2018-07-07T06:21:39.802Z,16.10
2018-07-07T06:24:08.826Z,16.20
2018-07-07T06:26:38.996Z,16.20
2018-07-07T06:29:08.320Z,16.10
2018-07-07T06:31:38.057Z,16.20
2018-07-07T06:34:07.230Z,16.40
2018-07-07T06:36:35.771Z,16.50
2018-07-07T06:39:04.855Z,16.60
2018-07-07T06:41:34.761Z,16.70
2018-07-07T06:44:03.813Z,16.70
2018-07-07T06:46:35.612Z,16.80
2018-07-07T06:49:04.155Z,17.20
2018-07-07T06:51:35.820Z,17.30
2018-07-07T06:54:05.165Z,17.50
2018-07-07T06:56:34.191Z,17.60
2018-07-07T06:59:03.002Z,17.70
2018-07-07T07:01:31.842Z,17.80
2018-07-07T07:04:02.406Z,17.80
2018-07-07T07:06:31.909Z,17.70
2018-07-07T07:09:00.538Z,17.60
2018-07-07T07:11:29.034Z,17.60
2018-07-07T07:14:28.475Z,17.50
2018-07-07T07:16:57.321Z,17.50
2018-07-07T07:19:25.815Z,17.70
2018-07-07T07:21:56.471Z,17.60
2018-07-07T07:24:25.042Z,17.70
2018-07-07T07:26:55.790Z,17.60
2018-07-07T07:29:24.626Z,17.70
2018-07-07T07:31:53.469Z,17.90
2018-07-07T07:34:22.336Z,18.00
2018-07-07T07:36:52.139Z,18.10
2018-07-07T07:39:22.333Z,18.30
2018-07-07T07:41:51.215Z,18.40
2018-07-07T07:44:20.073Z,18.50
2018-07-07T07:46:50.525Z,18.60
2018-07-07T07:49:19.384Z,18.60
2018-07-07T07:51:49.660Z,18.70
2018-07-07T07:54:18.495Z,18.80
2018-07-07T07:56:47.059Z,18.90
2018-07-07T07:59:18.206Z,19.10
2018-07-07T08:01:47.711Z,18.90
2018-07-07T08:04:16.482Z,19.10
2018-07-07T08:06:45.583Z,19.30
2018-07-07T08:09:14.953Z,19.40
2018-07-07T08:11:43.437Z,19.50
2018-07-07T08:14:12.662Z,19.50
2018-07-07T08:16:41.640Z,19.50
2018-07-07T08:19:10.154Z,19.50
2018-07-07T08:21:39.039Z,19.70
2018-07-07T08:24:07.587Z,19.90
2018-07-07T08:26:36.467Z,20.00
2018-07-07T08:29:05.316Z,20.00
2018-07-07T08:31:33.825Z,20.10
2018-07-07T08:34:02.702Z,20.20
2018-07-07T08:36:31.950Z,20.30
2018-07-07T08:39:07.665Z,20.40
2018-07-07T08:41:36.189Z,20.50
2018-07-07T08:44:04.726Z,20.60
2018-07-07T08:46:33.884Z,20.60
2018-07-07T08:49:02.896Z,20.70
2018-07-07T08:51:32.334Z,20.90
2018-07-07T08:54:00.877Z,21.20
2018-07-07T08:56:29.753Z,21.40
2018-07-07T08:58:58.617Z,21.50
2018-07-07T09:01:27.485Z,21.60
2018-07-07T09:03:56.691Z,21.70
2018-07-07T09:06:25.539Z,21.60
2018-07-07T09:08:54.726Z,21.80
2018-07-07T09:11:23.237Z,22.00
2018-07-07T09:13:52.569Z,21.90
2018-07-07T09:16:21.809Z,22.00
2018-07-07T09:18:51.590Z,22.00
2018-07-07T09:21:20.761Z,22.10
2018-07-07T09:23:49.390Z,22.30
2018-07-07T09:26:18.255Z,22.30
2018-07-07T09:28:47.142Z,22.30
2018-07-07T09:31:16.001Z,22.40
2018-07-07T09:33:44.864Z,22.70
2018-07-07T09:36:13.731Z,22.80
2018-07-07T09:38:42.664Z,23.00
2018-07-07T09:41:11.650Z,22.90
2018-07-07T09:43:40.193Z,23.00
2018-07-07T09:46:08.726Z,23.10
2018-07-07T09:48:37.256Z,23.20
2018-07-07T09:51:06.779Z,23.20
2018-07-07T09:53:35.285Z,23.10
2018-07-07T09:56:04.141Z,23.30
2018-07-07T09:58:33.634Z,23.40
2018-07-07T10:01:02.810Z,23.60
2018-07-07T10:03:31.738Z,23.70
2018-07-07T10:06:01.985Z,23.80
2018-07-07T10:08:30.501Z,23.90
2018-07-07T10:11:00.009Z,24.00
2018-07-07T10:13:29.533Z,24.00
2018-07-07T10:15:59.693Z,24.20
2018-07-07T10:18:28.611Z,24.30
2018-07-07T10:20:58.028Z,24.40
2018-07-07T10:23:27.229Z,24.50
2018-07-07T10:25:56.593Z,24.70
2018-07-07T10:28:25.117Z,24.90
2018-07-07T10:30:53.419Z,24.80
2018-07-07T10:33:21.670Z,24.80
2018-07-07T10:35:50.235Z,24.90
2018-07-07T10:38:49.388Z,25.00
2018-07-07T10:41:18.092Z,25.00
2018-07-07T10:43:46.704Z,25.20
2018-07-07T10:46:15.314Z,25.20
2018-07-07T10:48:43.899Z,25.20
2018-07-07T10:51:12.453Z,25.50
2018-07-07T10:53:41.548Z,25.30
2018-07-07T10:56:10.997Z,25.50
2018-07-07T10:58:39.650Z,25.60
2018-07-07T11:01:08.273Z,25.70
2018-07-07T11:03:36.874Z,25.50
2018-07-07T11:06:05.144Z,25.30
2018-07-07T11:08:33.500Z,25.40
2018-07-07T11:11:02.067Z,25.20
2018-07-07T11:13:30.623Z,25.40
2018-07-07T11:15:59.084Z,25.60
2018-07-07T11:18:27.695Z,25.80
2018-07-07T11:20:56.958Z,25.60
2018-07-07T11:23:25.580Z,25.80
2018-07-07T11:25:54.172Z,25.90
2018-07-07T11:28:22.488Z,26.20
2018-07-07T11:30:50.888Z,26.30
2018-07-07T11:33:19.330Z,26.20
2018-07-07T11:35:48.445Z,26.10
2018-07-07T11:38:16.759Z,26.10
2018-07-07T11:40:45.050Z,26.10
2018-07-07T11:43:13.289Z,26.30
2018-07-07T11:45:41.918Z,26.40
2018-07-07T11:48:10.165Z,26.20
2018-07-07T11:50:38.780Z,26.60
2018-07-07T11:53:08.320Z,26.90
2018-07-07T11:55:36.556Z,26.90
2018-07-07T11:58:04.834Z,27.20
2018-07-07T12:00:33.451Z,27.20
2018-07-07T12:03:02.350Z,27.20
2018-07-07T12:05:30.985Z,27.10
2018-07-07T12:10:28.477Z,27.20
2018-07-07T12:12:57.053Z,27.00
2018-07-07T12:15:25.645Z,27.00
2018-07-07T12:17:55.085Z,26.80
2018-07-07T12:20:24.003Z,26.90
2018-07-07T12:22:53.246Z,26.80
2018-07-07T12:25:21.849Z,26.70
2018-07-07T12:27:51.073Z,26.80
2018-07-07T12:30:19.781Z,26.80
2018-07-07T12:32:48.881Z,26.60
2018-07-07T12:35:17.459Z,26.70
2018-07-07T12:37:46.050Z,26.70
2018-07-07T12:40:14.700Z,26.80
2018-07-07T12:42:43.323Z,26.80
2018-07-07T12:45:11.560Z,26.70
2018-07-07T12:47:39.780Z,26.80
2018-07-07T12:50:08.006Z,27.00
2018-07-07T12:52:37.317Z,27.00
2018-07-07T12:55:05.887Z,27.00
2018-07-07T12:57:34.750Z,26.80
2018-07-07T13:00:03.149Z,26.70
2018-07-07T13:02:32.322Z,26.80
2018-07-07T13:05:00.984Z,26.90
2018-07-07T13:07:29.601Z,26.70
2018-07-07T13:09:58.377Z,26.30
2018-07-07T13:12:26.609Z,26.40
2018-07-07T13:14:55.438Z,26.80
2018-07-07T13:17:24.475Z,27.00
2018-07-07T13:19:53.942Z,27.30
2018-07-07T13:22:22.934Z,27.20
2018-07-07T13:24:52.064Z,27.30
2018-07-07T13:27:21.212Z,27.40
2018-07-07T13:29:49.492Z,27.70
2018-07-07T13:32:18.091Z,27.80
2018-07-07T13:34:46.679Z,27.70
2018-07-07T13:37:15.284Z,27.70
2018-07-07T13:39:43.672Z,27.80
2018-07-07T13:42:13.501Z,27.80
2018-07-07T13:44:42.806Z,27.90
2018-07-07T13:47:11.740Z,28.10
2018-07-07T13:49:40.303Z,28.30
2018-07-07T13:52:08.903Z,28.40
2018-07-07T13:54:37.477Z,28.50
2018-07-07T13:57:05.742Z,28.70
2018-07-07T13:59:33.961Z,28.80
2018-07-07T14:02:02.934Z,28.80
2018-07-07T14:04:31.230Z,28.90
2018-07-07T14:06:59.781Z,29.10
2018-07-07T14:09:28.378Z,29.00
2018-07-07T14:11:57.107Z,29.10
2018-07-07T14:14:25.994Z,29.10
2018-07-07T14:16:54.965Z,29.10
2018-07-07T14:19:23.702Z,29.00
2018-07-07T14:21:52.279Z,28.80
2018-07-07T14:24:20.862Z,28.80
2018-07-07T14:26:49.097Z,28.90
2018-07-07T14:29:17.670Z,29.10
2018-07-07T14:31:46.258Z,29.00
2018-07-07T14:34:15.037Z,28.90
2018-07-07T14:36:44.018Z,28.80
2018-07-07T14:39:12.270Z,28.50
2018-07-07T14:41:40.554Z,28.40
2018-07-07T14:44:13.685Z,28.30
2018-07-07T14:46:41.942Z,28.30
2018-07-07T14:49:10.534Z,28.50
2018-07-07T14:51:39.125Z,28.50
2018-07-07T14:54:08.134Z,28.50
2018-07-07T14:56:37.127Z,28.60
2018-07-07T14:59:05.551Z,28.50
2018-07-07T15:01:33.832Z,28.60
2018-07-07T15:04:02.685Z,28.50
2018-07-07T15:06:31.393Z,28.30
2018-07-07T15:08:59.884Z,28.20
2018-07-07T15:11:29.120Z,28.20
2018-07-07T15:13:57.789Z,28.30
2018-07-07T15:16:26.403Z,28.50
2018-07-07T15:18:55.609Z,28.50
2018-07-07T15:21:24.194Z,28.50
2018-07-07T15:23:53.365Z,28.40
2018-07-07T15:26:22.349Z,28.30
2018-07-07T15:28:51.073Z,28.10
2018-07-07T15:31:19.681Z,27.80
2018-07-07T15:33:49.753Z,27.70
2018-07-07T15:36:17.989Z,27.60
2018-07-07T15:38:47.044Z,27.60
2018-07-07T15:41:15.681Z,27.50
2018-07-07T15:43:44.581Z,27.40
2018-07-07T15:46:13.537Z,27.20
2018-07-07T15:48:42.680Z,27.20
2018-07-07T15:51:13.430Z,27.10
2018-07-07T15:53:42.349Z,27.10
2018-07-07T15:56:10.937Z,27.00
2018-07-07T15:58:39.808Z,27.00
2018-07-07T16:01:09.161Z,27.00
2018-07-07T16:03:39.284Z,27.10
2018-07-07T16:06:09.543Z,27.10
2018-07-07T16:08:38.189Z,27.10
2018-07-07T16:11:07.193Z,27.10
2018-07-07T16:13:35.510Z,27.10
2018-07-07T16:16:07.187Z,27.40
2018-07-07T16:18:36.117Z,27.40
2018-07-07T16:21:05.041Z,27.40
2018-07-07T16:23:33.627Z,27.60
2018-07-07T16:26:02.348Z,27.60
2018-07-07T16:28:31.682Z,27.60
2018-07-07T16:31:00.399Z,27.70
2018-07-07T16:33:28.994Z,27.80
2018-07-07T16:35:57.233Z,27.70
2018-07-07T16:38:26.123Z,27.50
2018-07-07T16:40:54.372Z,27.40
2018-07-07T16:43:23.576Z,27.50
2018-07-07T16:45:51.864Z,27.40
2018-07-07T16:48:20.129Z,27.20
2018-07-07T16:50:48.978Z,27.30
2018-07-07T16:53:17.567Z,27.30
2018-07-07T16:55:47.293Z,27.30
2018-07-07T16:58:16.706Z,27.20
2018-07-07T17:00:46.015Z,27.20
2018-07-07T17:03:14.602Z,27.00
2018-07-07T17:05:43.139Z,26.90
2018-07-07T17:08:13.597Z,26.90
2018-07-07T17:10:42.178Z,26.80
2018-07-07T17:13:18.598Z,26.90
2018-07-07T17:15:46.915Z,26.90
2018-07-07T17:18:17.412Z,26.90
2018-07-07T17:20:46.985Z,26.80
2018-07-07T17:23:15.978Z,26.60
2018-07-07T17:25:46.145Z,26.50
2018-07-07T17:28:14.745Z,26.40
2018-07-07T17:30:43.467Z,26.30
2018-07-07T17:33:11.690Z,26.30
2018-07-07T17:35:39.925Z,26.30
2018-07-07T17:38:08.173Z,26.40
2018-07-07T17:40:38.095Z,26.40
2018-07-07T17:43:07.031Z,26.40
2018-07-07T17:45:35.447Z,26.30
2018-07-07T17:48:03.984Z,26.20
2018-07-07T17:50:33.125Z,26.20
2018-07-07T17:53:03.025Z,26.30
2018-07-07T17:55:32.254Z,26.20
2018-07-07T17:58:07.383Z,26.10
2018-07-07T18:00:37.414Z,26.10
2018-07-07T18:03:05.787Z,26.00
2018-07-07T18:05:39.870Z,25.90
2018-07-07T18:08:12.672Z,25.80
2018-07-07T18:10:42.754Z,25.80
2018-07-07T18:13:15.428Z,25.70
2018-07-07T18:15:44.526Z,25.70
2018-07-07T18:18:14.427Z,25.60
2018-07-07T18:20:49.390Z,25.80
2018-07-07T18:23:18.330Z,25.70
2018-07-07T18:25:47.245Z,25.60
2018-07-07T18:28:15.841Z,25.50
2018-07-07T18:30:47.411Z,25.40
2018-07-07T18:33:23.663Z,25.40
2018-07-07T18:35:52.302Z,25.40
2018-07-07T18:38:22.489Z,25.30
2018-07-07T18:40:52.898Z,25.40
2018-07-07T18:43:21.718Z,25.30
2018-07-07T18:45:57.136Z,25.20
2018-07-07T18:48:26.801Z,25.10
2018-07-07T18:50:59.525Z,25.10
2018-07-07T18:53:32.654Z,25.00
2018-07-07T18:56:02.668Z,25.00
2018-07-07T18:58:33.653Z,25.00
2018-07-07T19:01:02.908Z,24.90
2018-07-07T19:03:31.921Z,24.90
2018-07-07T19:06:02.207Z,24.90
2018-07-07T19:08:33.174Z,24.90
2018-07-07T19:11:01.703Z,24.70
2018-07-07T19:13:31.790Z,24.70
2018-07-07T19:16:00.401Z,24.70
2018-07-07T19:18:28.977Z,24.60
2018-07-07T19:21:03.082Z,24.60
2018-07-07T19:23:37.074Z,24.50
2018-07-07T19:26:10.910Z,24.60
2018-07-07T19:28:39.361Z,24.50
2018-07-07T19:31:08.293Z,24.40
2018-07-07T19:33:41.855Z,24.50
2018-07-07T19:36:15.901Z,24.50
2018-07-07T19:38:44.121Z,24.50
2018-07-07T19:41:15.148Z,24.30
2018-07-07T19:43:44.318Z,24.30
2018-07-07T19:46:12.602Z,24.20
2018-07-07T19:48:41.304Z,24.10
2018-07-07T19:51:09.917Z,24.00
2018-07-07T19:53:39.245Z,23.90
2018-07-07T19:56:08.521Z,23.80
2018-07-07T19:58:37.364Z,23.70
2018-07-07T20:01:05.944Z,23.70
2018-07-07T20:03:34.510Z,23.70
2018-07-07T20:06:03.083Z,23.60
2018-07-07T20:08:31.640Z,23.50
2018-07-07T20:11:00.181Z,23.50
2018-07-07T20:13:28.442Z,23.50
2018-07-07T20:16:15.797Z,23.30
2018-07-07T20:19:14.959Z,23.30
2018-07-07T20:21:49.265Z,23.30
2018-07-07T20:24:20.729Z,23.30
2018-07-07T20:26:55.726Z,23.30
2018-07-07T20:29:25.081Z,23.20
2018-07-07T20:31:55.172Z,23.20
2018-07-07T20:34:25.965Z,23.20
2018-07-07T20:36:55.717Z,23.10
2018-07-07T20:39:24.837Z,23.10
2018-07-07T20:41:55.086Z,23.00
2018-07-07T20:44:23.914Z,23.10
2018-07-07T20:46:52.436Z,23.00
2018-07-07T20:49:21.594Z,23.00
2018-07-07T20:51:50.436Z,23.00
2018-07-07T20:54:19.551Z,22.90
2018-07-07T20:56:48.927Z,22.90
2018-07-07T20:59:19.105Z,22.80
2018-07-07T21:01:48.979Z,22.70
2018-07-07T21:04:17.637Z,22.70
2018-07-07T21:06:46.486Z,22.60
2018-07-07T21:09:15.378Z,22.50
2018-07-07T21:11:44.238Z,22.40
2018-07-07T21:14:12.749Z,22.50
2018-07-07T21:16:41.280Z,22.40
2018-07-07T21:19:09.763Z,22.40
2018-07-07T21:21:38.599Z,22.40
2018-07-07T21:24:09.287Z,22.40
2018-07-07T21:26:38.836Z,22.30
2018-07-07T21:29:07.960Z,22.30
2018-07-07T21:31:36.781Z,22.30
2018-07-07T21:34:06.594Z,22.20
2018-07-07T21:36:35.437Z,22.30
2018-07-07T21:39:05.254Z,22.30
2018-07-07T21:41:34.159Z,22.20
2018-07-07T21:44:02.719Z,22.20
2018-07-07T21:46:31.901Z,22.10
2018-07-07T21:49:02.440Z,22.10
2018-07-07T21:51:31.484Z,22.00
2018-07-07T21:54:00.064Z,22.00
2018-07-07T21:56:29.278Z,21.80
2018-07-07T21:59:03.277Z,21.80
2018-07-07T22:01:53.497Z,21.90
2018-07-07T22:04:27.985Z,21.80
2018-07-07T22:07:02.337Z,21.80
2018-07-07T22:09:33.230Z,21.80
2018-07-07T22:12:02.678Z,21.60
2018-07-07T22:14:31.728Z,21.70
2018-07-07T22:17:01.142Z,21.70
2018-07-07T22:19:30.337Z,21.70
2018-07-07T22:22:05.000Z,21.70
2018-07-07T22:24:33.594Z,21.60
2018-07-07T22:27:04.216Z,21.60
2018-07-07T22:29:33.378Z,21.60
2018-07-07T22:32:05.218Z,21.60
2018-07-07T22:34:36.962Z,21.50
2018-07-07T22:37:07.385Z,21.50
2018-07-07T22:39:40.056Z,21.40
2018-07-07T22:42:10.500Z,21.40
2018-07-07T22:44:39.955Z,21.20
2018-07-07T22:47:08.775Z,21.20
2018-07-07T22:49:37.706Z,21.20
2018-07-07T22:52:06.892Z,21.30
2018-07-07T22:54:35.919Z,21.20
2018-07-07T22:57:04.538Z,21.20
2018-07-07T22:59:33.809Z,21.20
2018-07-07T23:02:03.173Z,21.20
2018-07-07T23:04:31.686Z,21.20
2018-07-07T23:07:00.861Z,21.10
2018-07-07T23:09:29.420Z,20.80
2018-07-07T23:11:57.917Z,20.70
2018-07-07T23:14:27.386Z,20.80
2018-07-07T23:16:59.820Z,20.80
2018-07-07T23:19:28.333Z,20.90
2018-07-07T23:21:57.613Z,20.90
2018-07-07T23:24:26.465Z,20.90
2018-07-07T23:26:54.977Z,20.90
2018-07-07T23:29:23.873Z,20.80
2018-07-07T23:31:52.457Z,20.80
2018-07-07T23:34:22.266Z,20.80
2018-07-07T23:36:50.822Z,20.80
2018-07-07T23:39:20.593Z,20.80
2018-07-07T23:41:49.473Z,20.70
2018-07-07T23:44:21.205Z,20.70
2018-07-07T23:46:50.065Z,20.70
2018-07-07T23:49:19.257Z,20.70
2018-07-07T23:51:47.827Z,20.70
2018-07-07T23:54:17.560Z,20.60
2018-07-07T23:56:46.761Z,20.50
2018-07-07T23:59:15.633Z,20.50
